createdAt,value
2019-01-08T00:00:39.402Z,2.50
2019-01-08T00:03:07.880Z,2.40
2019-01-08T00:05:36.376Z,2.30
2019-01-08T00:08:04.843Z,2.20
2019-01-08T00:10:33.347Z,2.20
2019-01-08T00:13:01.817Z,2.20
2019-01-08T00:15:30.277Z,2.30
2019-01-08T00:17:58.752Z,2.30
2019-01-08T00:20:27.228Z,2.20
2019-01-08T00:22:55.719Z,2.20
2019-01-08T00:25:24.196Z,2.20
2019-01-08T00:27:52.687Z,2.10
2019-01-08T00:30:21.136Z,2.20
2019-01-08T00:32:49.578Z,2.20
2019-01-08T00:35:18.189Z,2.20
2019-01-08T00:37:46.665Z,2.30
2019-01-08T00:40:15.214Z,2.30
2019-01-08T00:42:43.684Z,2.30
2019-01-08T00:45:12.132Z,2.20
2019-01-08T00:47:40.620Z,2.20
2019-01-08T00:50:09.117Z,2.10
2019-01-08T00:52:37.580Z,2.20
2019-01-08T00:55:06.145Z,2.20
2019-01-08T00:57:34.637Z,2.20
2019-01-08T01:00:03.773Z,2.10
2019-01-08T01:02:32.268Z,2.10
2019-01-08T01:05:00.749Z,2.10
2019-01-08T01:07:29.204Z,2.10
2019-01-08T01:09:57.694Z,2.10
2019-01-08T01:12:26.925Z,2.10
2019-01-08T01:14:55.464Z,2.10
2019-01-08T01:17:23.968Z,2.10
2019-01-08T01:19:52.449Z,2.10
2019-01-08T01:22:20.928Z,2.00
2019-01-08T01:24:49.620Z,2.10
2019-01-08T01:27:18.116Z,2.10
2019-01-08T01:29:46.589Z,2.10
2019-01-08T01:32:15.076Z,2.00
2019-01-08T01:34:43.558Z,2.10
2019-01-08T01:37:12.046Z,2.10
2019-01-08T01:39:40.520Z,2.10
2019-01-08T01:42:09.000Z,2.10
2019-01-08T01:44:37.503Z,2.10
2019-01-08T01:47:05.964Z,2.10
2019-01-08T01:49:34.490Z,2.20
2019-01-08T01:52:02.989Z,2.20
2019-01-08T01:54:31.641Z,2.20
2019-01-08T01:57:00.085Z,2.30
2019-01-08T01:59:28.543Z,2.30
2019-01-08T02:01:57.030Z,2.30
2019-01-08T02:04:25.503Z,2.30
2019-01-08T02:06:54.034Z,2.30
2019-01-08T02:09:22.614Z,2.30
2019-01-08T02:11:51.093Z,2.30
2019-01-08T02:14:19.617Z,2.30
2019-01-08T02:16:48.125Z,2.30
2019-01-08T02:19:16.625Z,2.30
2019-01-08T02:21:45.120Z,2.30
2019-01-08T02:24:13.753Z,2.30
2019-01-08T02:26:42.293Z,2.30
2019-01-08T02:29:16.501Z,2.30
2019-01-08T02:31:41.045Z,2.30
2019-01-08T02:34:09.528Z,2.30
2019-01-08T02:36:37.991Z,2.30
2019-01-08T02:39:06.885Z,2.30
2019-01-08T02:41:35.648Z,2.30
2019-01-08T02:44:04.524Z,2.30
2019-01-08T02:46:33.080Z,2.30
2019-01-08T02:49:01.600Z,2.30
2019-01-08T02:51:30.138Z,2.20
2019-01-08T02:53:58.622Z,2.20
2019-01-08T02:56:27.105Z,2.10
2019-01-08T02:58:55.581Z,2.00
2019-01-08T03:01:24.145Z,2.00
2019-01-08T03:03:52.993Z,1.90
2019-01-08T03:06:21.457Z,1.90
2019-01-08T03:08:49.965Z,1.80
2019-01-08T03:11:18.431Z,1.70
2019-01-08T03:13:47.133Z,1.60
2019-01-08T03:16:15.591Z,1.60
2019-01-08T03:18:44.056Z,1.50
2019-01-08T03:21:12.517Z,1.50
2019-01-08T03:23:41.017Z,1.40
2019-01-08T03:26:09.603Z,1.40
2019-01-08T03:28:38.064Z,1.30
2019-01-08T03:31:06.544Z,1.30
2019-01-08T03:33:35.054Z,1.30
2019-01-08T03:36:03.596Z,1.30
2019-01-08T03:38:32.076Z,1.30
2019-01-08T03:41:00.573Z,1.30
2019-01-08T03:43:34.161Z,1.30
2019-01-08T03:46:02.634Z,1.30
2019-01-08T03:48:31.121Z,1.30
2019-01-08T03:50:59.593Z,1.30
2019-01-08T03:53:28.257Z,1.30
2019-01-08T03:55:56.837Z,1.30
2019-01-08T03:58:25.380Z,1.40
2019-01-08T04:00:53.870Z,1.30
2019-01-08T04:03:22.424Z,1.30
2019-01-08T04:05:50.921Z,1.20
2019-01-08T04:08:19.405Z,1.20
2019-01-08T04:10:47.872Z,1.20
2019-01-08T04:13:16.357Z,1.20
2019-01-08T04:15:44.851Z,1.20
2019-01-08T04:18:13.344Z,1.20
2019-01-08T04:20:41.800Z,1.30
2019-01-08T04:23:10.294Z,1.30
2019-01-08T04:25:38.758Z,1.30
2019-01-08T04:28:07.237Z,1.20
2019-01-08T04:30:35.736Z,1.20
2019-01-08T04:33:04.190Z,1.10
2019-01-08T04:35:32.672Z,1.10
2019-01-08T04:38:01.174Z,1.20
2019-01-08T04:40:29.637Z,1.10
2019-01-08T04:42:58.101Z,1.10
2019-01-08T04:45:26.740Z,1.10
2019-01-08T04:47:55.208Z,1.10
2019-01-08T04:50:23.652Z,1.20
2019-01-08T04:52:52.126Z,1.20
2019-01-08T04:55:20.796Z,1.10
2019-01-08T04:57:49.289Z,1.10
2019-01-08T05:00:17.862Z,1.00
2019-01-08T05:02:46.344Z,1.00
2019-01-08T05:05:14.937Z,1.00
2019-01-08T05:07:43.409Z,1.00
2019-01-08T05:10:11.888Z,1.10
2019-01-08T05:12:40.389Z,1.10
2019-01-08T05:15:08.933Z,1.20
2019-01-08T05:17:37.390Z,1.20
2019-01-08T05:20:07.778Z,1.30
2019-01-08T05:22:36.260Z,1.30
2019-01-08T05:25:05.703Z,1.40
2019-01-08T05:27:34.180Z,1.30
2019-01-08T05:30:07.936Z,1.40
2019-01-08T05:32:32.861Z,1.40
2019-01-08T05:35:06.588Z,1.40
2019-01-08T05:37:35.053Z,1.40
2019-01-08T05:40:04.306Z,1.50
2019-01-08T05:42:32.776Z,1.50
2019-01-08T05:45:01.263Z,1.50
2019-01-08T05:47:29.751Z,1.50
2019-01-08T05:49:58.224Z,1.50
2019-01-08T05:52:26.795Z,1.50
2019-01-08T05:54:55.267Z,1.50
2019-01-08T05:57:23.765Z,1.40
2019-01-08T05:59:52.276Z,1.40
2019-01-08T06:02:20.890Z,1.40
2019-01-08T06:04:49.369Z,1.30
2019-01-08T06:07:17.946Z,1.30
2019-01-08T06:09:46.420Z,1.40
2019-01-08T06:12:14.905Z,1.40
2019-01-08T06:14:43.409Z,1.40
2019-01-08T06:17:11.877Z,1.30
2019-01-08T06:19:40.340Z,1.40
2019-01-08T06:22:08.837Z,1.30
2019-01-08T06:24:37.319Z,1.30
2019-01-08T06:27:05.792Z,1.30
2019-01-08T06:29:34.267Z,1.30
2019-01-08T06:32:02.771Z,1.30
2019-01-08T06:34:31.240Z,1.30
2019-01-08T06:36:59.742Z,1.30
2019-01-08T06:39:28.204Z,1.30
2019-01-08T06:41:56.672Z,1.30
2019-01-08T06:44:25.173Z,1.30
2019-01-08T06:46:53.637Z,1.20
2019-01-08T06:49:22.117Z,1.20
2019-01-08T06:51:50.596Z,1.10
2019-01-08T06:54:19.076Z,1.10
2019-01-08T06:56:47.533Z,1.00
2019-01-08T06:59:16.032Z,1.00
2019-01-08T07:01:44.509Z,1.00
2019-01-08T07:04:13.065Z,1.00
2019-01-08T07:06:41.569Z,1.00
2019-01-08T07:09:10.068Z,1.00
2019-01-08T07:11:38.586Z,1.10
2019-01-08T07:14:07.072Z,1.10
2019-01-08T07:16:35.564Z,1.00
2019-01-08T07:19:04.057Z,1.00
2019-01-08T07:21:32.566Z,1.00
2019-01-08T07:24:01.119Z,1.00
2019-01-08T07:26:29.632Z,1.00
2019-01-08T07:28:58.153Z,0.90
2019-01-08T07:31:26.644Z,0.90
2019-01-08T07:33:55.273Z,0.90
2019-01-08T07:36:23.756Z,0.90
2019-01-08T07:38:52.320Z,1.00
2019-01-08T07:41:20.827Z,1.00
2019-01-08T07:43:49.297Z,1.00
2019-01-08T07:46:17.819Z,1.00
2019-01-08T07:48:46.308Z,1.00
2019-01-08T07:51:14.800Z,1.00
2019-01-08T07:53:43.267Z,1.00
2019-01-08T07:56:11.765Z,1.00
2019-01-08T07:58:40.254Z,1.00
2019-01-08T08:01:08.744Z,1.10
2019-01-08T08:03:37.249Z,1.10
2019-01-08T08:06:05.713Z,1.20
2019-01-08T08:08:34.177Z,1.20
2019-01-08T08:11:02.672Z,1.30
2019-01-08T08:13:32.506Z,1.30
2019-01-08T08:16:01.325Z,1.30
2019-01-08T08:18:29.977Z,1.30
2019-01-08T08:20:58.461Z,1.30
2019-01-08T08:23:27.027Z,1.30
2019-01-08T08:25:55.503Z,1.30
2019-01-08T08:28:24.044Z,1.30
2019-01-08T08:30:58.642Z,1.30
2019-01-08T08:33:22.884Z,1.30
2019-01-08T08:35:51.365Z,1.30
2019-01-08T08:38:19.866Z,1.20
2019-01-08T08:40:48.353Z,1.20
2019-01-08T08:43:16.808Z,1.10
2019-01-08T08:45:45.307Z,1.10
2019-01-08T08:48:13.829Z,1.10
2019-01-08T08:50:42.301Z,1.20
2019-01-08T08:53:10.780Z,1.10
2019-01-08T08:55:40.196Z,1.10
2019-01-08T08:58:08.945Z,1.10
2019-01-08T09:00:37.415Z,1.10
2019-01-08T09:03:05.934Z,1.10
2019-01-08T09:05:34.460Z,1.10
2019-01-08T09:08:02.957Z,1.10
2019-01-08T09:10:31.435Z,1.20
2019-01-08T09:12:59.904Z,1.20
2019-01-08T09:15:28.401Z,1.30
2019-01-08T09:17:56.877Z,1.30
2019-01-08T09:20:25.389Z,1.30
2019-01-08T09:22:53.892Z,1.40
2019-01-08T09:25:22.876Z,1.40
2019-01-08T09:27:51.356Z,1.30
2019-01-08T09:30:20.016Z,1.30
2019-01-08T09:32:48.581Z,1.30
2019-01-08T09:35:17.044Z,1.30
2019-01-08T09:37:45.546Z,1.30
2019-01-08T09:40:14.013Z,1.30
2019-01-08T09:42:42.889Z,1.30
2019-01-08T09:45:11.633Z,1.30
2019-01-08T09:47:40.134Z,1.30
2019-01-08T09:50:09.044Z,1.30
2019-01-08T09:52:37.509Z,1.30
2019-01-08T09:55:06.966Z,1.40
2019-01-08T09:57:35.474Z,1.40
2019-01-08T10:00:05.164Z,1.40
2019-01-08T10:02:33.677Z,1.40
2019-01-08T10:05:02.156Z,1.30
2019-01-08T10:07:30.649Z,1.20
2019-01-08T10:09:59.136Z,1.20
2019-01-08T10:12:27.621Z,1.20
2019-01-08T10:14:56.085Z,1.20
2019-01-08T10:17:24.584Z,1.30
2019-01-08T10:19:53.061Z,1.30
2019-01-08T10:22:21.540Z,1.20
2019-01-08T10:24:50.004Z,1.20
2019-01-08T10:27:18.503Z,1.20
2019-01-08T10:29:46.980Z,1.20
2019-01-08T10:32:15.461Z,1.20
2019-01-08T10:34:43.956Z,1.20
2019-01-08T10:37:12.433Z,1.20
2019-01-08T10:39:40.942Z,1.20
2019-01-08T10:42:09.400Z,1.30
2019-01-08T10:44:37.884Z,1.30
2019-01-08T10:47:06.371Z,1.30
2019-01-08T10:49:34.938Z,1.30
2019-01-08T10:52:03.418Z,1.30
2019-01-08T10:54:31.898Z,1.30
2019-01-08T10:57:00.384Z,1.30
2019-01-08T10:59:28.854Z,1.30
2019-01-08T11:01:57.337Z,1.30
2019-01-08T11:04:25.804Z,1.40
2019-01-08T11:06:54.308Z,1.40
2019-01-08T11:09:22.776Z,1.50
2019-01-08T11:11:51.241Z,1.50
2019-01-08T11:14:19.824Z,1.40
2019-01-08T11:16:48.300Z,1.50
2019-01-08T11:19:16.748Z,1.50
2019-01-08T11:21:45.220Z,1.50
2019-01-08T11:24:13.737Z,1.50
2019-01-08T11:26:42.284Z,1.60
2019-01-08T11:29:10.828Z,1.60
2019-01-08T11:31:39.324Z,1.70
2019-01-08T11:34:07.788Z,1.70
2019-01-08T11:36:36.256Z,1.80
2019-01-08T11:39:06.357Z,1.80
2019-01-08T11:41:34.881Z,1.80
2019-01-08T11:44:03.429Z,1.80
2019-01-08T11:46:31.912Z,1.80
2019-01-08T11:49:00.421Z,1.80
2019-01-08T11:51:29.213Z,1.80
2019-01-08T11:53:57.998Z,1.80
2019-01-08T11:56:26.469Z,1.90
2019-01-08T11:58:55.022Z,1.90
2019-01-08T12:01:23.492Z,1.90
2019-01-08T12:03:51.974Z,2.00
2019-01-08T12:06:20.464Z,1.90
2019-01-08T12:08:48.933Z,1.90
2019-01-08T12:11:17.424Z,1.90
2019-01-08T12:13:45.913Z,1.90
2019-01-08T12:16:14.382Z,2.00
2019-01-08T12:18:42.856Z,2.00
2019-01-08T12:21:11.421Z,1.90
2019-01-08T12:23:39.893Z,2.00
2019-01-08T12:26:08.369Z,1.90
2019-01-08T12:28:36.864Z,1.90
2019-01-08T12:31:05.341Z,1.90
2019-01-08T12:33:33.844Z,2.00
2019-01-08T12:36:02.312Z,2.00
2019-01-08T12:38:30.820Z,2.00
2019-01-08T12:40:59.300Z,2.00
2019-01-08T12:43:27.770Z,2.00
2019-01-08T12:45:56.256Z,2.00
2019-01-08T12:48:24.725Z,2.10
2019-01-08T12:50:53.272Z,2.10
2019-01-08T12:53:21.764Z,2.10
2019-01-08T12:55:50.301Z,2.10
2019-01-08T12:58:18.785Z,2.10
2019-01-08T13:00:47.262Z,2.00
2019-01-08T13:03:15.705Z,2.10
2019-01-08T13:05:44.184Z,2.10
2019-01-08T13:08:12.657Z,2.20
2019-01-08T13:10:41.141Z,2.20
2019-01-08T13:13:09.733Z,2.20
2019-01-08T13:15:38.225Z,2.20
2019-01-08T13:18:06.704Z,2.30
2019-01-08T13:20:35.184Z,2.30
2019-01-08T13:23:03.677Z,2.40
2019-01-08T13:25:32.332Z,2.40
2019-01-08T13:28:00.857Z,2.50
2019-01-08T13:30:29.328Z,2.50
2019-01-08T13:32:57.807Z,2.50
2019-01-08T13:35:26.262Z,2.40
2019-01-08T13:37:54.744Z,2.50
2019-01-08T13:40:23.252Z,2.40
2019-01-08T13:42:51.793Z,2.40
2019-01-08T13:45:20.268Z,2.40
2019-01-08T13:47:48.845Z,2.50
2019-01-08T13:50:17.329Z,2.50
2019-01-08T13:52:45.812Z,2.60
2019-01-08T13:55:14.276Z,2.60
2019-01-08T13:57:42.749Z,2.70
2019-01-08T14:00:11.477Z,2.60
2019-01-08T14:02:40.019Z,2.70
2019-01-08T14:05:23.681Z,2.70
2019-01-08T14:07:52.505Z,2.70
2019-01-08T14:10:20.973Z,2.70
2019-01-08T14:12:51.465Z,2.70
2019-01-08T14:15:19.761Z,2.70
2019-01-08T14:17:48.422Z,2.70
2019-01-08T14:20:16.972Z,2.80
2019-01-08T14:22:45.477Z,2.70
2019-01-08T14:25:13.941Z,2.70
2019-01-08T14:27:42.437Z,2.70
2019-01-08T14:30:11.129Z,2.80
2019-01-08T14:32:40.715Z,2.80
2019-01-08T14:35:09.643Z,3.10
2019-01-08T14:37:38.117Z,3.40
2019-01-08T14:40:07.517Z,3.60
2019-01-08T14:42:36.284Z,3.70
2019-01-08T14:45:05.116Z,3.80
2019-01-08T14:47:33.585Z,3.90
2019-01-08T14:50:02.066Z,3.90
2019-01-08T14:52:30.600Z,4.00
2019-01-08T14:54:59.097Z,4.00
2019-01-08T14:57:27.589Z,4.00
2019-01-08T14:59:56.057Z,3.90
2019-01-08T15:02:24.538Z,3.80
2019-01-08T15:04:53.033Z,3.70
2019-01-08T15:07:21.671Z,3.70
2019-01-08T15:09:50.213Z,3.60
2019-01-08T15:12:18.785Z,3.60
2019-01-08T15:14:47.312Z,3.50
2019-01-08T15:17:15.779Z,3.50
2019-01-08T15:19:44.341Z,3.50
2019-01-08T15:22:12.820Z,3.50
2019-01-08T15:24:41.297Z,3.50
2019-01-08T15:27:09.770Z,3.60
2019-01-08T15:29:38.233Z,3.70
2019-01-08T15:32:06.800Z,4.00
2019-01-08T15:34:35.561Z,4.20
2019-01-08T15:37:04.182Z,4.20
2019-01-08T15:39:32.667Z,4.20
2019-01-08T15:42:01.162Z,4.20
2019-01-08T15:44:29.632Z,4.20
2019-01-08T15:46:58.456Z,4.10
2019-01-08T15:49:27.005Z,4.10
2019-01-08T15:51:55.489Z,4.00
2019-01-08T15:54:23.984Z,4.00
2019-01-08T15:56:52.455Z,3.90
2019-01-08T15:59:20.929Z,3.80
2019-01-08T16:01:49.437Z,3.70
2019-01-08T16:04:22.959Z,3.60
2019-01-08T16:06:51.737Z,3.50
2019-01-08T16:09:20.233Z,3.50
2019-01-08T16:11:48.763Z,3.50
2019-01-08T16:14:17.246Z,3.60
2019-01-08T16:16:45.732Z,3.60
2019-01-08T16:19:14.369Z,3.50
2019-01-08T16:21:42.925Z,3.50
2019-01-08T16:24:11.416Z,3.50
2019-01-08T16:26:39.961Z,3.60
2019-01-08T16:29:08.444Z,3.50
2019-01-08T16:31:36.913Z,3.50
2019-01-08T16:34:05.393Z,3.50
2019-01-08T16:36:33.850Z,3.50
2019-01-08T16:39:02.393Z,3.80
2019-01-08T16:41:31.243Z,4.10
2019-01-08T16:43:59.806Z,4.20
2019-01-08T16:46:28.343Z,4.10
2019-01-08T16:48:56.828Z,4.10
2019-01-08T16:51:25.313Z,4.00
2019-01-08T16:53:53.804Z,4.10
2019-01-08T16:56:22.437Z,4.10
2019-01-08T16:58:50.921Z,4.20
2019-01-08T17:01:19.476Z,4.30
2019-01-08T17:03:48.041Z,4.40
2019-01-08T17:06:16.605Z,4.50
2019-01-08T17:08:45.149Z,4.50
2019-01-08T17:11:13.617Z,4.50
2019-01-08T17:13:42.108Z,4.50
2019-01-08T17:16:10.582Z,4.50
2019-01-08T17:18:39.065Z,4.70
2019-01-08T17:21:07.556Z,4.70
2019-01-08T17:23:36.041Z,4.70
2019-01-08T17:26:04.509Z,4.70
2019-01-08T17:28:32.996Z,4.80
2019-01-08T17:31:01.489Z,4.90
2019-01-08T17:33:34.054Z,4.90
2019-01-08T17:36:00.217Z,4.90
2019-01-08T17:38:28.716Z,5.00
2019-01-08T17:40:57.174Z,5.00
2019-01-08T17:43:33.262Z,4.80
2019-01-08T17:45:55.864Z,4.70
2019-01-08T17:48:24.328Z,4.70
2019-01-08T17:50:52.795Z,4.80
2019-01-08T17:53:21.281Z,4.80
2019-01-08T17:55:49.832Z,4.80
2019-01-08T17:58:36.590Z,4.80
2019-01-08T18:01:08.500Z,4.70
2019-01-08T18:03:42.599Z,4.70
2019-01-08T18:06:07.184Z,4.60
2019-01-08T18:08:35.673Z,4.60
2019-01-08T18:11:04.221Z,4.50
2019-01-08T18:13:32.714Z,4.70
2019-01-08T18:16:01.245Z,4.70
2019-01-08T18:18:29.702Z,4.70
2019-01-08T18:20:58.193Z,4.70
2019-01-08T18:23:26.665Z,4.70
2019-01-08T18:25:55.135Z,4.60
2019-01-08T18:28:23.623Z,4.40
2019-01-08T18:30:52.096Z,4.30
2019-01-08T18:33:20.593Z,4.10
2019-01-08T18:35:49.104Z,4.00
2019-01-08T18:38:17.656Z,3.90
2019-01-08T18:40:46.172Z,3.80
2019-01-08T18:43:14.672Z,3.80
2019-01-08T18:45:43.409Z,3.80
2019-01-08T18:48:11.884Z,3.70
2019-01-08T18:50:40.348Z,3.70
2019-01-08T18:53:08.845Z,3.60
2019-01-08T18:55:37.586Z,3.60
2019-01-08T18:58:06.052Z,3.50
2019-01-08T19:00:34.512Z,3.60
2019-01-08T19:03:02.976Z,3.80
2019-01-08T19:05:31.540Z,4.00
2019-01-08T19:08:00.017Z,4.20
2019-01-08T19:10:28.510Z,4.30
2019-01-08T19:12:56.958Z,4.50
2019-01-08T19:15:25.425Z,4.60
2019-01-08T19:17:53.919Z,4.60
2019-01-08T19:20:22.364Z,4.60
2019-01-08T19:22:50.821Z,4.50
2019-01-08T19:25:19.292Z,4.40
2019-01-08T19:27:47.761Z,4.40
2019-01-08T19:30:16.230Z,4.40
2019-01-08T19:32:44.702Z,4.40
2019-01-08T19:35:13.245Z,4.30
2019-01-08T19:37:41.743Z,4.30
2019-01-08T19:40:10.280Z,4.20
2019-01-08T19:42:38.752Z,4.20
2019-01-08T19:45:08.126Z,4.20
2019-01-08T19:47:36.585Z,4.20
2019-01-08T19:50:07.300Z,4.20
2019-01-08T19:52:35.797Z,4.20
2019-01-08T19:55:04.521Z,4.30
2019-01-08T19:57:33.006Z,4.40
2019-01-08T20:00:01.544Z,4.50
2019-01-08T20:02:30.028Z,4.60
2019-01-08T20:04:58.501Z,4.60
2019-01-08T20:07:26.980Z,4.50
2019-01-08T20:09:55.454Z,4.40
2019-01-08T20:12:23.927Z,4.30
2019-01-08T20:14:52.420Z,4.30
2019-01-08T20:17:20.885Z,4.40
2019-01-08T20:19:49.363Z,4.40
2019-01-08T20:22:17.852Z,4.40
2019-01-08T20:24:46.337Z,4.40
2019-01-08T20:27:15.140Z,4.30
2019-01-08T20:29:43.644Z,4.20
2019-01-08T20:32:12.142Z,4.10
2019-01-08T20:34:40.637Z,4.20
2019-01-08T20:37:09.182Z,4.20
2019-01-08T20:39:37.648Z,4.30
2019-01-08T20:42:06.099Z,4.40
2019-01-08T20:44:34.588Z,4.40
2019-01-08T20:47:03.139Z,4.50
2019-01-08T20:49:31.688Z,4.40
2019-01-08T20:52:00.185Z,4.40
2019-01-08T20:54:28.669Z,4.40
2019-01-08T20:56:57.128Z,4.30
2019-01-08T20:59:25.597Z,4.30
2019-01-08T21:01:54.065Z,4.20
2019-01-08T21:04:22.548Z,4.10
2019-01-08T21:06:51.013Z,3.90
2019-01-08T21:09:19.509Z,3.80
2019-01-08T21:11:47.977Z,3.80
2019-01-08T21:14:16.468Z,3.70
2019-01-08T21:16:47.766Z,3.70
2019-01-08T21:19:15.133Z,3.70
2019-01-08T21:21:43.632Z,3.60
2019-01-08T21:24:12.112Z,3.50
2019-01-08T21:26:40.580Z,3.60
2019-01-08T21:29:09.072Z,3.80
2019-01-08T21:31:37.801Z,3.90
2019-01-08T21:34:06.258Z,4.10
2019-01-08T21:36:34.738Z,4.10
2019-01-08T21:39:04.778Z,4.00
2019-01-08T21:41:33.286Z,3.90
2019-01-08T21:44:01.754Z,3.90
2019-01-08T21:46:30.218Z,3.90
2019-01-08T21:48:58.718Z,4.00
2019-01-08T21:51:27.195Z,4.00
2019-01-08T21:53:55.843Z,4.00
2019-01-08T21:56:24.324Z,3.90
2019-01-08T21:58:52.824Z,3.80
2019-01-08T22:01:21.280Z,3.80
2019-01-08T22:03:49.836Z,3.70
2019-01-08T22:06:18.413Z,3.70
2019-01-08T22:08:46.988Z,3.70
2019-01-08T22:11:15.514Z,3.80
2019-01-08T22:13:44.004Z,3.80
2019-01-08T22:16:12.467Z,3.90
2019-01-08T22:18:40.937Z,3.90
2019-01-08T22:21:09.412Z,3.90
2019-01-08T22:23:37.877Z,3.90
2019-01-08T22:26:06.376Z,3.90
2019-01-08T22:28:34.845Z,3.90
2019-01-08T22:31:03.308Z,3.90
2019-01-08T22:33:31.804Z,3.90
2019-01-08T22:36:00.289Z,4.00
2019-01-08T22:38:28.736Z,4.10
2019-01-08T22:40:57.237Z,4.00
2019-01-08T22:43:25.720Z,4.00
2019-01-08T22:45:54.185Z,4.00
2019-01-08T22:48:23.129Z,3.90
2019-01-08T22:50:51.617Z,3.80
2019-01-08T22:53:20.088Z,3.80
2019-01-08T22:55:48.553Z,3.80
2019-01-08T22:58:17.044Z,3.80
2019-01-08T23:00:50.596Z,3.90
2019-01-08T23:03:19.213Z,3.90
2019-01-08T23:05:47.788Z,4.00
2019-01-08T23:08:17.156Z,3.90
2019-01-08T23:10:45.681Z,3.90
2019-01-08T23:13:15.073Z,3.90
2019-01-08T23:15:43.642Z,3.80
2019-01-08T23:18:12.116Z,3.80
2019-01-08T23:20:40.659Z,3.70
2019-01-08T23:23:09.173Z,3.70
2019-01-08T23:25:37.641Z,3.60
2019-01-08T23:28:06.101Z,3.50
2019-01-08T23:30:34.612Z,3.50
2019-01-08T23:33:03.075Z,3.60
2019-01-08T23:35:31.548Z,3.70
2019-01-08T23:38:00.096Z,3.80
2019-01-08T23:40:28.576Z,3.80
2019-01-08T23:42:57.137Z,3.60
2019-01-08T23:45:25.649Z,3.50
2019-01-08T23:47:54.205Z,3.50
2019-01-08T23:50:22.673Z,3.50
2019-01-08T23:52:57.082Z,3.80
2019-01-08T23:55:26.124Z,4.00
2019-01-08T23:57:55.781Z,4.20
